createdAt,value
2023-04-14T00:00:46.377Z,3.08
2023-04-14T00:03:18.366Z,3.33
2023-04-14T00:05:45.887Z,3.10
2023-04-14T00:08:13.104Z,3.47
2023-04-14T00:10:40.038Z,3.22
2023-04-14T00:13:07.581Z,4.35
2023-04-14T00:15:34.721Z,4.03
2023-04-14T00:18:02.010Z,3.85
2023-04-14T00:20:29.050Z,5.10
2023-04-14T00:22:56.657Z,4.05
2023-04-14T00:25:23.595Z,3.63
2023-04-14T00:27:50.832Z,3.95
2023-04-14T00:30:17.974Z,3.70
2023-04-14T00:32:45.274Z,4.80
2023-04-14T00:35:12.260Z,3.92
2023-04-14T00:37:39.584Z,3.88
2023-04-14T00:40:09.314Z,4.03
2023-04-14T00:42:47.490Z,3.58
2023-04-14T00:45:15.509Z,4.10
2023-04-14T00:47:47.421Z,3.40
2023-04-14T00:50:15.392Z,3.90
2023-04-14T00:52:44.483Z,3.47
2023-04-14T00:55:11.841Z,3.53
2023-04-14T00:57:40.538Z,3.83
2023-04-14T01:00:08.070Z,3.15
2023-04-14T01:02:36.134Z,3.05
2023-04-14T01:05:03.558Z,3.58
2023-04-14T01:07:31.252Z,2.95
2023-04-14T01:09:58.725Z,3.13
2023-04-14T01:12:48.380Z,4.00
2023-04-14T01:15:51.779Z,3.60
2023-04-14T01:18:31.180Z,3.33
2023-04-14T01:21:05.661Z,3.30
2023-04-14T01:23:39.448Z,3.33
2023-04-14T01:26:22.102Z,2.90
2023-04-14T01:29:27.030Z,4.07
2023-04-14T01:32:01.245Z,4.03
2023-04-14T01:34:33.934Z,3.50
2023-04-14T01:37:09.243Z,3.00
2023-04-14T01:39:42.809Z,2.97
2023-04-14T01:42:15.029Z,3.05
2023-04-14T01:44:44.248Z,2.80
2023-04-14T01:47:14.170Z,2.75
2023-04-14T01:49:43.249Z,3.90
2023-04-14T01:52:13.625Z,3.30
2023-04-14T01:54:43.569Z,3.13
2023-04-14T01:57:14.386Z,4.47
2023-04-14T01:59:42.766Z,3.20
2023-04-14T02:02:13.921Z,3.10
2023-04-14T02:04:42.750Z,4.65
2023-04-14T02:07:11.726Z,3.65
2023-04-14T02:09:41.976Z,3.50
2023-04-14T02:12:12.049Z,3.20
2023-04-14T02:14:42.074Z,3.20
2023-04-14T02:17:11.812Z,3.88
2023-04-14T02:19:39.706Z,4.28
2023-04-14T02:22:07.036Z,5.00
2023-04-14T02:24:34.405Z,4.40
2023-04-14T02:27:09.287Z,3.57
2023-04-14T02:29:40.706Z,3.63
2023-04-14T02:32:12.447Z,4.85
2023-04-14T02:34:48.083Z,4.82
2023-04-14T02:37:21.818Z,4.20
2023-04-14T02:39:57.063Z,3.47
2023-04-14T02:42:27.632Z,4.68
2023-04-14T02:45:05.290Z,5.25
2023-04-14T02:47:35.291Z,5.65
2023-04-14T02:50:06.082Z,4.80
2023-04-14T02:52:36.696Z,4.77
2023-04-14T02:55:06.400Z,4.95
2023-04-14T02:57:34.007Z,3.97
2023-04-14T03:00:02.396Z,4.68
2023-04-14T03:02:31.900Z,5.78
2023-04-14T03:05:05.975Z,5.13
2023-04-14T03:07:44.210Z,6.28
2023-04-14T03:10:15.266Z,5.15
2023-04-14T03:12:42.974Z,4.57
2023-04-14T03:15:11.078Z,5.40
2023-04-14T03:17:40.247Z,4.17
2023-04-14T03:20:09.473Z,4.35
2023-04-14T03:22:40.982Z,4.05
2023-04-14T03:25:12.611Z,4.30
2023-04-14T03:27:44.636Z,4.75
2023-04-14T03:30:13.658Z,4.53
2023-04-14T03:32:43.779Z,4.78
2023-04-14T03:35:15.724Z,5.07
2023-04-14T03:37:44.873Z,3.50
2023-04-14T03:40:15.707Z,3.67
2023-04-14T03:42:46.501Z,3.90
2023-04-14T03:45:18.393Z,3.70
2023-04-14T03:47:46.511Z,4.03
2023-04-14T03:50:15.742Z,3.60
2023-04-14T03:52:44.050Z,3.72
2023-04-14T03:55:12.842Z,4.07
2023-04-14T03:57:44.038Z,4.20
2023-04-14T04:00:16.003Z,4.32
2023-04-14T04:02:46.545Z,4.00
2023-04-14T04:05:14.670Z,4.32
2023-04-14T04:07:42.689Z,5.63
2023-04-14T04:10:12.735Z,8.18
2023-04-14T04:12:43.230Z,8.50
2023-04-14T04:15:11.751Z,7.22
2023-04-14T04:17:41.888Z,5.65
2023-04-14T04:20:13.236Z,5.33
2023-04-14T04:22:42.400Z,3.92
2023-04-14T04:25:11.906Z,3.60
2023-04-14T04:27:45.787Z,3.58
2023-04-14T04:30:18.466Z,3.80
2023-04-14T04:32:45.820Z,3.80
2023-04-14T04:35:14.343Z,3.20
2023-04-14T04:37:45.948Z,3.90
2023-04-14T04:40:13.631Z,4.18
2023-04-14T04:42:42.299Z,4.60
2023-04-14T04:45:11.664Z,5.53
2023-04-14T04:47:39.424Z,6.70
2023-04-14T04:50:07.478Z,5.22
2023-04-14T04:52:34.339Z,5.18
2023-04-14T04:55:01.543Z,4.80
2023-04-14T04:57:28.432Z,5.43
2023-04-14T04:59:55.917Z,5.22
2023-04-14T05:02:23.292Z,5.80
2023-04-14T05:04:51.114Z,5.78
2023-04-14T05:07:18.204Z,5.88
2023-04-14T05:09:45.852Z,6.03
2023-04-14T05:12:12.719Z,5.50
2023-04-14T05:14:39.937Z,6.13
2023-04-14T05:17:06.918Z,5.15
2023-04-14T05:19:34.127Z,6.47
2023-04-14T05:22:01.759Z,6.97
2023-04-14T05:24:29.005Z,7.28
2023-04-14T05:27:13.160Z,9.07
2023-04-14T05:29:41.515Z,8.52
2023-04-14T05:32:08.855Z,9.80
2023-04-14T05:34:36.100Z,10.83
2023-04-14T05:37:03.290Z,7.65
2023-04-14T05:39:30.502Z,7.97
2023-04-14T05:41:57.753Z,9.20
2023-04-14T05:44:25.005Z,6.38
2023-04-14T05:46:52.607Z,6.23
2023-04-14T05:49:19.952Z,7.25
2023-04-14T05:51:46.900Z,6.78
2023-04-14T05:54:14.337Z,6.47
2023-04-14T05:56:41.242Z,6.63
2023-04-14T05:59:08.948Z,6.23
2023-04-14T06:01:36.451Z,6.40
2023-04-14T06:04:04.677Z,6.80
2023-04-14T06:06:32.794Z,6.15
2023-04-14T06:09:00.331Z,10.18
2023-04-14T06:11:27.332Z,10.03
2023-04-14T06:13:54.527Z,12.38
2023-04-14T06:16:21.440Z,17.20
2023-04-14T06:18:48.639Z,19.33
2023-04-14T06:21:15.612Z,13.95
2023-04-14T06:23:42.840Z,10.60
2023-04-14T06:26:09.827Z,8.32
2023-04-14T06:28:37.002Z,8.95
2023-04-14T06:31:04.146Z,8.20
2023-04-14T06:33:31.862Z,6.28
2023-04-14T06:35:58.835Z,5.53
2023-04-14T06:38:27.227Z,6.30
2023-04-14T06:40:54.302Z,8.88
2023-04-14T06:43:22.216Z,7.00
2023-04-14T06:45:51.270Z,7.32
2023-04-14T06:48:18.628Z,6.80
2023-04-14T06:50:54.445Z,6.20
2023-04-14T06:53:22.158Z,7.80
2023-04-14T06:55:51.850Z,6.82
2023-04-14T06:58:19.130Z,6.13
2023-04-14T07:00:46.030Z,6.67
2023-04-14T07:03:13.603Z,5.28
2023-04-14T07:05:40.511Z,6.13
2023-04-14T07:08:07.772Z,5.55
2023-04-14T07:10:34.667Z,5.10
2023-04-14T07:13:01.879Z,5.03
2023-04-14T07:15:30.172Z,5.00
2023-04-14T07:17:58.627Z,4.43
2023-04-14T07:20:27.301Z,4.75
2023-04-14T07:22:54.559Z,4.63
2023-04-14T07:25:22.139Z,4.57
2023-04-14T07:28:02.151Z,4.22
2023-04-14T07:30:29.881Z,4.43
2023-04-14T07:32:57.323Z,4.50
2023-04-14T07:35:27.492Z,4.80
2023-04-14T07:37:55.802Z,5.10
2023-04-14T07:40:22.716Z,5.07
2023-04-14T07:42:49.899Z,4.63
2023-04-14T07:45:17.842Z,4.57
2023-04-14T07:47:45.097Z,4.95
2023-04-14T07:50:12.135Z,4.60
2023-04-14T07:52:39.339Z,5.30
2023-04-14T07:55:06.649Z,4.35
2023-04-14T07:57:34.850Z,4.55
2023-04-14T08:00:01.851Z,4.75
2023-04-14T08:02:39.948Z,4.10
2023-04-14T08:05:07.286Z,4.70
2023-04-14T08:07:34.514Z,4.10
2023-04-14T08:10:01.426Z,3.60
2023-04-14T08:12:28.629Z,4.30
2023-04-14T08:14:57.315Z,4.40
2023-04-14T08:17:24.874Z,4.78
2023-04-14T08:19:51.874Z,5.20
2023-04-14T08:22:19.122Z,5.35
2023-04-14T08:24:46.161Z,5.38
2023-04-14T08:27:13.382Z,9.10
2023-04-14T08:29:40.314Z,7.82
2023-04-14T08:32:07.718Z,5.70
2023-04-14T08:34:34.981Z,4.97
2023-04-14T08:37:02.222Z,5.68
2023-04-14T08:39:29.145Z,4.33
2023-04-14T08:41:58.404Z,3.80
2023-04-14T08:44:25.424Z,3.55
2023-04-14T08:46:53.667Z,4.32
2023-04-14T08:49:34.205Z,4.22
2023-04-14T08:52:03.931Z,3.83
2023-04-14T08:54:31.553Z,3.75
2023-04-14T08:57:00.260Z,4.30
2023-04-14T08:59:28.825Z,4.00
2023-04-14T09:01:56.908Z,3.90
2023-04-14T09:04:24.680Z,4.10
2023-04-14T09:06:52.677Z,3.90
2023-04-14T09:09:20.636Z,3.50
2023-04-14T09:11:48.688Z,3.72
2023-04-14T09:14:15.769Z,5.00
2023-04-14T09:16:43.132Z,5.63
2023-04-14T09:19:11.054Z,5.18
2023-04-14T09:21:51.659Z,4.18
2023-04-14T09:24:25.143Z,3.80
2023-04-14T09:26:53.139Z,3.60
2023-04-14T09:29:20.047Z,3.90
2023-04-14T09:31:47.676Z,3.72
2023-04-14T09:34:22.267Z,3.63
2023-04-14T09:37:09.912Z,2.95
2023-04-14T09:39:47.727Z,3.00
2023-04-14T09:42:14.970Z,3.37
2023-04-14T09:44:57.515Z,3.58
2023-04-14T09:47:24.977Z,3.90
2023-04-14T09:49:57.841Z,3.30
2023-04-14T09:52:48.576Z,2.88
2023-04-14T09:55:17.117Z,3.33
2023-04-14T09:57:47.677Z,3.50
2023-04-14T10:00:22.625Z,2.92
2023-04-14T10:02:51.546Z,2.90
2023-04-14T10:05:26.466Z,2.80
2023-04-14T10:07:53.785Z,2.60
2023-04-14T10:10:20.864Z,2.88
2023-04-14T10:12:48.254Z,2.83
2023-04-14T10:15:15.738Z,2.55
2023-04-14T10:17:43.106Z,2.20
2023-04-14T10:20:10.490Z,2.20
2023-04-14T10:22:40.422Z,2.40
2023-04-14T10:25:09.364Z,2.40
2023-04-14T10:27:38.447Z,2.10
2023-04-14T10:30:06.805Z,2.17
2023-04-14T10:32:36.914Z,2.20
2023-04-14T10:35:10.262Z,1.88
2023-04-14T10:37:37.619Z,2.08
2023-04-14T10:40:07.465Z,1.98
2023-04-14T10:42:56.615Z,2.00
2023-04-14T10:45:23.793Z,2.40
2023-04-14T10:47:51.528Z,2.60
2023-04-14T10:50:22.753Z,2.10
2023-04-14T10:52:56.342Z,1.90
2023-04-14T10:55:25.043Z,1.77
2023-04-14T10:57:54.721Z,1.90
2023-04-14T11:00:23.566Z,1.88
2023-04-14T11:03:06.050Z,1.77
2023-04-14T11:05:34.862Z,1.90
2023-04-14T11:08:13.610Z,1.98
2023-04-14T11:10:42.091Z,1.70
2023-04-14T11:13:12.883Z,1.80
2023-04-14T11:15:50.563Z,1.70
2023-04-14T11:18:34.364Z,1.98
2023-04-14T11:21:15.773Z,1.88
2023-04-14T11:23:43.710Z,2.00
2023-04-14T11:26:14.298Z,1.85
2023-04-14T11:28:43.563Z,1.30
2023-04-14T11:31:12.463Z,1.58
2023-04-14T11:33:41.864Z,1.80
2023-04-14T11:36:11.261Z,1.50
2023-04-14T11:38:42.158Z,1.77
2023-04-14T11:41:09.927Z,1.65
2023-04-14T11:43:46.708Z,1.42
2023-04-14T11:46:14.582Z,1.80
2023-04-14T11:48:41.876Z,2.45
2023-04-14T11:51:08.782Z,1.60
2023-04-14T11:53:36.470Z,1.60
2023-04-14T11:56:04.092Z,1.80
2023-04-14T11:58:32.151Z,1.80
2023-04-14T12:00:59.133Z,1.67
2023-04-14T12:03:35.886Z,1.60
2023-04-14T12:06:03.603Z,1.83
2023-04-14T12:08:32.335Z,1.70
2023-04-14T12:11:13.399Z,1.60
2023-04-14T12:13:42.070Z,1.67
2023-04-14T12:16:09.847Z,1.80
2023-04-14T12:18:37.260Z,1.80
2023-04-14T12:21:06.390Z,1.52
2023-04-14T12:23:37.820Z,1.63
2023-04-14T12:26:11.539Z,1.65
2023-04-14T12:28:42.269Z,1.40
2023-04-14T12:31:10.090Z,1.20
2023-04-14T12:33:37.840Z,1.63
2023-04-14T12:36:06.301Z,1.65
2023-04-14T12:38:34.473Z,1.70
2023-04-14T12:41:01.885Z,1.52
2023-04-14T12:43:36.646Z,1.40
2023-04-14T12:46:05.794Z,1.60
2023-04-14T12:48:41.015Z,1.25
2023-04-14T12:51:11.019Z,1.25
2023-04-14T12:53:39.770Z,1.20
2023-04-14T12:56:10.556Z,1.40
2023-04-14T12:58:40.430Z,1.20
2023-04-14T13:01:08.806Z,1.13
2023-04-14T13:03:45.213Z,0.80
2023-04-14T13:06:16.650Z,1.00
2023-04-14T13:08:48.944Z,1.10
2023-04-14T13:11:17.494Z,1.13
2023-04-14T13:13:48.503Z,1.20
2023-04-14T13:16:18.241Z,1.20
2023-04-14T13:18:47.783Z,1.08
2023-04-14T13:21:15.371Z,1.00
2023-04-14T13:23:42.643Z,1.17
2023-04-14T13:26:09.946Z,1.13
2023-04-14T13:28:37.255Z,1.10
2023-04-14T13:31:04.352Z,1.10
2023-04-14T13:33:32.643Z,1.00
2023-04-14T13:35:59.621Z,0.80
2023-04-14T13:38:27.365Z,1.07
2023-04-14T13:40:54.590Z,1.10
2023-04-14T13:43:23.433Z,1.00
2023-04-14T13:45:50.565Z,1.05
2023-04-14T13:48:18.182Z,1.10
2023-04-14T13:50:45.376Z,1.07
2023-04-14T13:53:12.761Z,0.90
2023-04-14T13:55:39.632Z,0.90
2023-04-14T13:58:06.872Z,1.10
2023-04-14T14:00:33.792Z,0.90
2023-04-14T14:03:01.204Z,1.20
2023-04-14T14:05:28.306Z,1.10
2023-04-14T14:07:58.584Z,1.00
2023-04-14T14:10:25.582Z,1.00
2023-04-14T14:12:53.452Z,1.00
2023-04-14T14:15:20.715Z,0.90
2023-04-14T14:17:47.994Z,0.95
2023-04-14T14:20:15.026Z,1.00
2023-04-14T14:22:42.305Z,0.95
2023-04-14T14:25:19.525Z,1.40
2023-04-14T14:27:48.479Z,1.07
2023-04-14T14:30:16.055Z,1.30
2023-04-14T14:32:43.547Z,1.10
2023-04-14T14:35:10.995Z,1.00
2023-04-14T14:37:38.546Z,1.00
2023-04-14T14:40:06.078Z,1.17
2023-04-14T14:42:33.315Z,1.30
2023-04-14T14:45:01.012Z,1.30
2023-04-14T14:47:29.237Z,1.75
2023-04-14T14:50:02.319Z,1.33
2023-04-14T14:52:32.158Z,1.50
2023-04-14T14:54:59.307Z,1.20
2023-04-14T14:57:27.316Z,1.20
2023-04-14T14:59:54.405Z,1.10
2023-04-14T15:02:22.675Z,1.20
2023-04-14T15:04:50.044Z,0.90
2023-04-14T15:07:18.069Z,1.10
2023-04-14T15:09:49.892Z,1.10
2023-04-14T15:12:17.749Z,1.13
2023-04-14T15:14:44.994Z,0.90
2023-04-14T15:17:12.267Z,1.10
2023-04-14T15:19:39.561Z,1.10
2023-04-14T15:22:07.810Z,1.00
2023-04-14T15:24:34.719Z,1.10
2023-04-14T15:27:03.692Z,1.00
2023-04-14T15:29:31.508Z,0.90
2023-04-14T15:31:58.954Z,1.00
2023-04-14T15:34:26.233Z,1.40
2023-04-14T15:36:53.602Z,1.50
2023-04-14T15:39:21.078Z,2.53
2023-04-14T15:41:50.547Z,1.93
2023-04-14T15:44:18.688Z,1.40
2023-04-14T15:46:46.499Z,1.10
2023-04-14T15:49:13.512Z,1.25
2023-04-14T15:51:40.861Z,2.95
2023-04-14T15:54:07.790Z,2.10
2023-04-14T15:56:35.679Z,2.00
2023-04-14T15:59:02.587Z,1.60
2023-04-14T16:01:29.857Z,1.45
2023-04-14T16:03:57.026Z,1.30
2023-04-14T16:06:24.260Z,1.30
2023-04-14T16:08:53.572Z,1.30
2023-04-14T16:11:20.972Z,1.20
2023-04-14T16:13:47.996Z,1.08
2023-04-14T16:16:16.234Z,1.10
2023-04-14T16:18:43.960Z,1.10
2023-04-14T16:21:11.437Z,0.90
2023-04-14T16:23:38.345Z,1.40
2023-04-14T16:26:05.795Z,1.10
2023-04-14T16:28:33.539Z,1.20
2023-04-14T16:31:01.832Z,1.30
2023-04-14T16:33:29.382Z,6.22
2023-04-14T16:35:59.939Z,2.20
2023-04-14T16:38:27.272Z,2.00
2023-04-14T16:40:57.820Z,1.67
2023-04-14T16:43:26.471Z,1.30
2023-04-14T16:46:00.237Z,1.23
2023-04-14T16:48:27.236Z,1.20
2023-04-14T16:50:54.428Z,1.20
2023-04-14T16:53:21.923Z,1.30
2023-04-14T16:55:49.119Z,1.40
2023-04-14T16:58:16.034Z,1.20
2023-04-14T17:00:43.468Z,1.20
2023-04-14T17:03:10.551Z,1.00
2023-04-14T17:05:38.120Z,0.88
2023-04-14T17:08:05.339Z,0.80
2023-04-14T17:10:32.546Z,1.00
2023-04-14T17:12:59.616Z,0.90
2023-04-14T17:15:27.928Z,0.80
2023-04-14T17:17:54.841Z,1.00
2023-04-14T17:20:22.114Z,0.80
2023-04-14T17:22:50.877Z,0.90
2023-04-14T17:25:20.776Z,2.80
2023-04-14T17:27:48.377Z,2.10
2023-04-14T17:30:15.578Z,1.50
2023-04-14T17:32:43.096Z,1.20
2023-04-14T17:35:11.029Z,1.00
2023-04-14T17:37:38.363Z,0.90
2023-04-14T17:40:08.197Z,0.93
2023-04-14T17:42:36.247Z,0.90
2023-04-14T17:45:04.318Z,0.73
2023-04-14T17:47:32.038Z,0.90
2023-04-14T17:49:59.239Z,0.80
2023-04-14T17:52:27.255Z,0.90
2023-04-14T17:54:55.125Z,1.00
2023-04-14T17:57:22.001Z,1.10
2023-04-14T17:59:49.249Z,1.13
2023-04-14T18:02:16.461Z,1.20
2023-04-14T18:04:43.925Z,0.90
2023-04-14T18:07:13.534Z,1.10
2023-04-14T18:09:40.920Z,1.40
2023-04-14T18:12:07.834Z,1.30
2023-04-14T18:14:35.191Z,1.60
2023-04-14T18:17:02.178Z,1.40
2023-04-14T18:19:29.482Z,1.30
2023-04-14T18:21:57.039Z,1.48
2023-04-14T18:26:54.636Z,1.42
2023-04-14T18:29:21.930Z,1.50
2023-04-14T18:31:49.771Z,1.40
2023-04-14T18:34:17.082Z,1.50
2023-04-14T18:36:44.344Z,1.80
2023-04-14T18:39:11.634Z,1.70
2023-04-14T18:41:38.696Z,1.60
2023-04-14T18:44:06.773Z,1.38
2023-04-14T18:46:33.801Z,1.10
2023-04-14T18:49:01.750Z,1.47
2023-04-14T18:51:29.087Z,1.40
2023-04-14T18:53:56.845Z,2.15
2023-04-14T18:56:23.745Z,1.60
2023-04-14T18:58:51.959Z,1.50
2023-04-14T19:01:19.062Z,1.20
2023-04-14T19:03:47.397Z,1.42
2023-04-14T19:06:14.721Z,2.30
2023-04-14T19:08:41.963Z,4.53
2023-04-14T19:11:10.015Z,5.13
2023-04-14T19:13:38.886Z,5.73
2023-04-14T19:16:08.492Z,5.10
2023-04-14T19:18:35.975Z,3.80
2023-04-14T19:21:03.351Z,3.35
2023-04-14T19:23:30.671Z,2.50
2023-04-14T19:25:57.780Z,1.80
2023-04-14T19:28:26.154Z,1.90
2023-04-14T19:30:53.383Z,1.70
2023-04-14T19:33:21.145Z,1.80
2023-04-14T19:35:49.210Z,1.70
2023-04-14T19:38:16.462Z,2.10
2023-04-14T19:40:48.607Z,1.83
2023-04-14T19:43:17.151Z,1.60
2023-04-14T19:45:54.081Z,1.90
2023-04-14T19:48:23.934Z,1.70
2023-04-14T19:50:55.333Z,1.37
2023-04-14T19:53:24.526Z,2.90
2023-04-14T19:55:52.443Z,2.88
2023-04-14T19:58:23.150Z,2.95
2023-04-14T20:00:52.858Z,2.70
2023-04-14T20:03:20.667Z,2.50
2023-04-14T20:05:52.962Z,2.90
2023-04-14T20:08:21.743Z,3.20
2023-04-14T20:10:52.003Z,2.72
2023-04-14T20:13:21.449Z,3.28
2023-04-14T20:15:49.493Z,2.60
2023-04-14T20:18:18.661Z,2.90
2023-04-14T20:20:46.435Z,2.75
2023-04-14T20:23:14.657Z,2.42
2023-04-14T20:25:43.131Z,2.45
2023-04-14T20:28:10.553Z,2.00
2023-04-14T20:30:38.005Z,1.92
2023-04-14T20:33:06.000Z,2.10
2023-04-14T20:35:37.472Z,1.75
2023-04-14T20:38:04.892Z,1.63
2023-04-14T20:40:32.754Z,1.70
2023-04-14T20:43:00.298Z,2.00
2023-04-14T20:45:27.311Z,1.98
2023-04-14T20:47:55.699Z,2.10
2023-04-14T20:50:23.410Z,1.75
2023-04-14T20:52:50.889Z,2.20
2023-04-14T20:55:19.976Z,1.63
2023-04-14T20:57:50.705Z,2.03
2023-04-14T21:00:19.032Z,1.60
2023-04-14T21:02:47.715Z,1.70
2023-04-14T21:05:18.569Z,2.13
2023-04-14T21:07:46.307Z,1.88
2023-04-14T21:10:15.224Z,2.17
2023-04-14T21:15:26.254Z,2.30
2023-04-14T21:15:55.515Z,2.10
2023-04-14T21:18:18.171Z,2.10
2023-04-14T21:20:45.160Z,3.63
2023-04-14T21:23:12.593Z,3.10
2023-04-14T21:25:39.686Z,3.17
2023-04-14T21:28:08.234Z,2.83
2023-04-14T21:30:35.452Z,2.20
2023-04-14T21:33:03.501Z,2.85
2023-04-14T21:35:31.751Z,2.70
2023-04-14T21:37:59.010Z,2.47
2023-04-14T21:40:26.480Z,2.40
2023-04-14T21:42:53.877Z,2.10
2023-04-14T21:45:21.152Z,1.92
2023-04-14T21:47:48.374Z,2.10
2023-04-14T21:50:15.423Z,1.73
2023-04-14T21:52:42.922Z,1.70
2023-04-14T21:55:09.817Z,1.97
2023-04-14T21:57:43.000Z,2.20
2023-04-14T22:00:18.021Z,2.00
2023-04-14T22:02:45.832Z,2.10
2023-04-14T22:05:14.715Z,3.22
2023-04-14T22:07:42.151Z,3.37
2023-04-14T22:10:10.094Z,2.72
2023-04-14T22:12:37.954Z,2.63
2023-04-14T22:15:06.711Z,2.17
2023-04-14T22:17:34.088Z,2.50
2023-04-14T22:20:01.486Z,2.30
2023-04-14T22:22:28.862Z,2.20
2023-04-14T22:24:56.260Z,2.60
2023-04-14T22:27:23.867Z,2.90
2023-04-14T22:29:50.775Z,2.72
2023-04-14T22:32:18.000Z,2.10
2023-04-14T22:34:45.084Z,2.50
2023-04-14T22:37:12.291Z,1.92
2023-04-14T22:39:39.455Z,1.70
2023-04-14T22:42:07.454Z,1.85
2023-04-14T22:44:34.384Z,2.27
2023-04-14T22:47:01.806Z,2.60
2023-04-14T22:49:28.744Z,2.97
2023-04-14T22:51:56.608Z,2.63
2023-04-14T22:54:23.472Z,2.58
2023-04-14T22:56:51.152Z,2.00
2023-04-14T22:59:18.104Z,2.55
2023-04-14T23:01:45.397Z,2.90
2023-04-14T23:04:12.405Z,2.92
2023-04-14T23:06:39.766Z,2.92
2023-04-14T23:09:06.645Z,2.70
2023-04-14T23:11:34.057Z,2.90
2023-04-14T23:14:01.015Z,2.88
2023-04-14T23:16:28.365Z,2.40
2023-04-14T23:18:55.574Z,2.58
2023-04-14T23:21:22.891Z,2.33
2023-04-14T23:23:50.569Z,2.28
2023-04-14T23:26:19.860Z,2.53
2023-04-14T23:28:47.165Z,3.00
2023-04-14T23:31:14.452Z,2.33
2023-04-14T23:33:41.424Z,2.20
2023-04-14T23:36:08.653Z,2.20
2023-04-14T23:38:35.572Z,2.33
2023-04-14T23:41:02.778Z,2.00
2023-04-14T23:43:29.760Z,1.80
2023-04-14T23:45:57.100Z,1.93
2023-04-14T23:48:24.188Z,1.70
2023-04-14T23:51:01.370Z,1.73
2023-04-14T23:53:39.210Z,1.45
2023-04-14T23:56:06.972Z,1.52
2023-04-14T23:58:33.891Z,1.60
